Time;durP1;ratioP1;P1;durP2;ratioP2;P2;SDS_P1;SDS_P2;PMS_P1;PMS_P2;Temp;Humidity;BMP_temperature;BMP_pressure;BME280_temperature;BME280_humidity;BME280_pressure;Samples;Min_cycle;Max_cycle;Signal;HPM_P1;HPM_P2
2023/01/05 00:01:41;;;;;;;;;;;9.50;99.90;;;;;;5028844;28;19940;-65
2023/01/05 00:04:07;;;;;;;;;;;9.60;99.90;;;;;;5047606;28;19921;-67
2023/01/05 00:06:33;;;;;;;;;;;9.50;99.90;;;;;;5039115;28;20378;-67
2023/01/05 00:08:59;;;;;;;;;;;9.50;99.90;;;;;;5053336;28;19927;-69
2023/01/05 00:22:30;;;;;;;;;;;9.50;99.90;;;;;;5051388;28;20023;-74
2023/01/05 00:25:00;;;;;;;;;;;9.50;99.90;;;;;;5050412;28;19974;-67
2023/01/05 00:27:26;;;;;;;;;;;9.50;99.90;;;;;;5051474;28;20362;-66
2023/01/05 00:29:51;;;;;;;;;;;9.50;99.90;;;;;;5050159;28;19976;-66
2023/01/05 00:32:17;;;;;;;;;;;9.50;99.90;;;;;;5051367;28;19927;-68
2023/01/05 00:34:42;;;;;;;;;;;9.40;99.90;;;;;;5041009;28;19921;-66
2023/01/05 00:37:08;;;;;;;;;;;9.40;99.90;;;;;;5050739;28;19928;-66
2023/01/05 00:39:34;;;;;;;;;;;9.40;99.90;;;;;;5051718;28;20382;-66
2023/01/05 00:41:59;;;;;;;;;;;9.40;99.90;;;;;;5049958;28;20808;-66
2023/01/05 00:44:25;;;;;;;;;;;9.40;99.90;;;;;;5049684;28;20444;-74
2023/01/05 00:46:50;;;;;;;;;;;9.40;99.90;;;;;;5051199;28;19920;-66
2023/01/05 00:49:16;;;;;;;;;;;9.40;99.90;;;;;;5051522;28;20445;-66
2023/01/05 00:51:42;;;;;;;;;;;9.40;99.90;;;;;;5051948;28;19921;-66
2023/01/05 00:54:07;;;;;;;;;;;9.30;99.90;;;;;;5051041;28;19921;-66
2023/01/05 00:56:33;;;;;;;;;;;9.80;99.90;;;;;;5046127;28;19932;-66
2023/01/05 00:58:58;;;;;;;;;;;9.30;99.90;;;;;;5051390;28;20333;-66
2023/01/05 01:01:24;;;;;;;;;;;9.30;99.90;;;;;;5050975;28;19924;-66
2023/01/05 01:03:49;;;;;;;;;;;9.40;99.90;;;;;;5050323;28;19990;-66
2023/01/05 01:06:15;;;;;;;;;;;9.30;99.90;;;;;;5043332;28;19931;-68
2023/01/05 01:08:41;;;;;;;;;;;9.30;99.90;;;;;;5051030;28;20277;-66
2023/01/05 01:11:07;;;;;;;;;;;9.40;99.90;;;;;;5051057;28;19921;-66
2023/01/05 01:13:33;;;;;;;;;;;9.30;99.90;;;;;;5050543;28;20259;-66
2023/01/05 01:16:06;;;;;;;;;;;9.30;99.90;;;;;;5050297;28;19947;-70
2023/01/05 01:18:31;;;;;;;;;;;9.30;99.90;;;;;;5049423;28;20003;-74
2023/01/05 01:20:58;;;;;;;;;;;9.30;99.90;;;;;;5050072;28;20015;-66
2023/01/05 01:23:23;;;;;;;;;;;9.30;99.90;;;;;;5050471;28;20319;-68
2023/01/05 01:25:49;;;;;;;;;;;9.40;99.90;;;;;;5050438;28;20123;-66
2023/01/05 01:28:14;;;;;;;;;;;9.40;99.90;;;;;;5035824;28;19927;-66
2023/01/05 01:30:40;;;;;;;;;;;9.40;99.90;;;;;;5050528;28;19921;-66
2023/01/05 01:33:05;;;;;;;;;;;9.40;99.90;;;;;;5052181;28;19971;-66
2023/01/05 01:35:31;;;;;;;;;;;9.40;99.90;;;;;;5050578;28;19928;-75
2023/01/05 01:37:56;;;;;;;;;;;9.40;99.90;;;;;;5045924;28;20404;-66
2023/01/05 01:40:22;;;;;;;;;;;9.40;99.90;;;;;;5040342;28;19927;-66
2023/01/05 01:42:48;;;;;;;;;;;9.50;99.90;;;;;;5050443;28;19927;-68
2023/01/05 01:45:13;;;;;;;;;;;9.50;99.90;;;;;;5050737;28;19921;-66
2023/01/05 01:47:42;;;;;;;;;;;9.50;99.90;;;;;;5047472;28;19920;-66
2023/01/05 01:50:16;;;;;;;;;;;9.50;99.90;;;;;;5050246;28;19925;-67
2023/01/05 01:52:44;;;;;;;;;;;9.60;99.90;;;;;;5050402;28;19940;-65
2023/01/05 01:55:10;;;;;;;;;;;9.60;99.90;;;;;;5081984;28;19921;-66
2023/01/05 01:57:37;;;;;;;;;;;9.60;99.90;;;;;;5049093;28;19929;-74
2023/01/05 02:00:04;;;;;;;;;;;9.60;99.90;;;;;;5048290;28;20393;-66
2023/01/05 02:02:30;;;;;;;;;;;9.60;99.90;;;;;;5050323;28;19925;-65
2023/01/05 02:04:58;;;;;;;;;;;9.60;99.90;;;;;;5081681;28;20499;-68
2023/01/05 02:07:24;;;;;;;;;;;9.50;99.90;;;;;;5049241;28;19920;-66
2023/01/05 02:09:50;;;;;;;;;;;9.50;99.90;;;;;;5039699;28;19929;-65
2023/01/05 02:12:45;;;;;;;;;;;9.50;99.90;;;;;;5049550;28;19933;-65
2023/01/05 02:15:20;;;;;;;;;;;9.50;99.90;;;;;;5048529;28;20038;-66
2023/01/05 02:17:57;;;;;;;;;;;9.50;99.90;;;;;;5052425;28;20404;-66
2023/01/05 02:20:35;;;;;;;;;;;9.50;99.90;;;;;;5040092;28;20403;-66
2023/01/05 02:23:19;;;;;;;;;;;9.50;99.90;;;;;;5049708;28;19943;-67
2023/01/05 02:25:47;;;;;;;;;;;9.50;99.90;;;;;;5050218;28;20390;-66
2023/01/05 02:28:20;;;;;;;;;;;9.50;99.90;;;;;;5049745;28;19921;-66
2023/01/05 02:30:58;;;;;;;;;;;9.50;99.90;;;;;;5048036;28;19932;-65
2023/01/05 02:33:23;;;;;;;;;;;9.50;99.90;;;;;;5052855;28;19928;-65
2023/01/05 02:36:07;;;;;;;;;;;9.50;99.90;;;;;;5051798;28;19931;-67
2023/01/05 02:38:33;;;;;;;;;;;9.50;99.90;;;;;;5053984;28;20369;-65
2023/01/05 02:41:04;;;;;;;;;;;9.50;99.90;;;;;;5046699;28;19948;-65
2023/01/05 02:43:30;;;;;;;;;;;9.50;99.90;;;;;;5040730;28;19925;-66
2023/01/05 02:45:56;;;;;;;;;;;9.50;99.90;;;;;;5050176;28;20380;-65
2023/01/05 02:48:21;;;;;;;;;;;9.50;99.90;;;;;;5057226;28;19921;-66
2023/01/05 02:51:00;;;;;;;;;;;9.50;99.90;;;;;;5051261;28;19966;-68
2023/01/05 02:53:37;;;;;;;;;;;9.50;99.90;;;;;;5055296;28;19924;-65
2023/01/05 02:56:09;;;;;;;;;;;9.50;99.90;;;;;;5056495;28;20088;-65
2023/01/05 02:58:45;;;;;;;;;;;9.50;99.90;;;;;;5052682;28;19928;-65
2023/01/05 03:01:14;;;;;;;;;;;9.50;99.90;;;;;;5051733;28;19924;-65
2023/01/05 03:03:41;;;;;;;;;;;9.50;99.90;;;;;;5049027;28;20039;-65
2023/01/05 03:06:12;;;;;;;;;;;9.50;99.90;;;;;;5039828;28;19921;-67
2023/01/05 03:08:40;;;;;;;;;;;9.50;99.90;;;;;;5053441;28;19921;-65
2023/01/05 03:14:03;;;;;;;;;;;9.50;99.90;;;;;;5042919;28;19924;-65
2023/01/05 03:16:32;;;;;;;;;;;9.50;99.90;;;;;;5067355;28;19924;-65
2023/01/05 03:35:37;;;;;;;;;;;9.50;99.90;;;;;;5053529;28;20331;-66
2023/01/05 03:38:06;;;;;;;;;;;9.50;99.90;;;;;;5051584;28;19924;-65
2023/01/05 03:40:34;;;;;;;;;;;9.50;99.90;;;;;;5052585;28;19921;-68
2023/01/05 03:43:01;;;;;;;;;;;9.50;99.90;;;;;;5052189;28;19970;-65
2023/01/05 03:45:31;;;;;;;;;;;9.50;99.90;;;;;;5050644;28;20361;-65
2023/01/05 03:47:57;;;;;;;;;;;9.50;99.90;;;;;;5052002;28;19943;-65
2023/01/05 03:50:22;;;;;;;;;;;9.50;99.90;;;;;;5051202;28;19921;-65
2023/01/05 03:52:48;;;;;;;;;;;9.50;99.90;;;;;;5052519;28;20363;-65
2023/01/05 03:55:13;;;;;;;;;;;9.50;99.90;;;;;;5051327;28;19924;-65
2023/01/05 03:57:39;;;;;;;;;;;9.50;99.90;;;;;;5065949;28;19931;-65
2023/01/05 04:00:05;;;;;;;;;;;9.50;99.90;;;;;;5051845;28;19925;-66
2023/01/05 04:02:31;;;;;;;;;;;9.50;99.90;;;;;;5050944;28;19921;-69
2023/01/05 04:04:56;;;;;;;;;;;9.50;99.90;;;;;;5050102;28;19964;-66
2023/01/05 04:07:22;;;;;;;;;;;9.50;99.90;;;;;;5060990;28;19929;-65
2023/01/05 04:09:47;;;;;;;;;;;9.50;99.90;;;;;;5060188;28;19925;-65
2023/01/05 04:12:13;;;;;;;;;;;9.50;99.90;;;;;;5051398;28;19917;-65
2023/01/05 04:14:38;;;;;;;;;;;9.50;99.90;;;;;;5051880;28;19926;-65
2023/01/05 04:17:04;;;;;;;;;;;9.50;99.90;;;;;;5049474;28;19921;-65
2023/01/05 04:19:29;;;;;;;;;;;9.50;99.90;;;;;;5047431;28;19960;-67
2023/01/05 04:21:55;;;;;;;;;;;9.50;99.90;;;;;;5048481;28;19931;-74
2023/01/05 04:24:20;;;;;;;;;;;9.50;99.90;;;;;;5052065;28;19921;-65
2023/01/05 04:26:46;;;;;;;;;;;9.50;99.90;;;;;;5044137;28;19924;-66
2023/01/05 04:29:12;;;;;;;;;;;9.50;99.90;;;;;;5054845;28;20054;-66
2023/01/05 04:31:37;;;;;;;;;;;9.50;99.90;;;;;;5051940;28;19925;-71
2023/01/05 04:34:03;;;;;;;;;;;9.50;99.90;;;;;;5047161;28;19927;-66
2023/01/05 04:36:28;;;;;;;;;;;9.50;99.90;;;;;;5049958;28;19990;-68
2023/01/05 04:38:54;;;;;;;;;;;9.50;99.90;;;;;;5060709;28;19920;-66
2023/01/05 04:41:19;;;;;;;;;;;9.50;99.90;;;;;;5050023;28;20017;-66
2023/01/05 04:43:45;;;;;;;;;;;9.50;99.90;;;;;;5051588;28;20607;-66
2023/01/05 04:46:10;;;;;;;;;;;9.50;99.90;;;;;;5049813;28;19924;-65
2023/01/05 04:48:36;;;;;;;;;;;9.50;99.90;;;;;;5049964;28;19939;-68
2023/01/05 04:51:02;;;;;;;;;;;9.50;99.90;;;;;;5033459;28;19920;-65
2023/01/05 04:53:27;;;;;;;;;;;9.50;99.90;;;;;;5049985;28;20280;-66
2023/01/05 04:55:53;;;;;;;;;;;9.50;99.90;;;;;;5050783;28;19927;-66
2023/01/05 04:58:19;;;;;;;;;;;9.50;99.90;;;;;;5043896;28;19924;-66
2023/01/05 05:00:44;;;;;;;;;;;9.50;99.90;;;;;;5055486;28;19921;-65
2023/01/05 05:03:10;;;;;;;;;;;9.50;99.90;;;;;;5051010;28;20028;-66
2023/01/05 05:05:36;;;;;;;;;;;9.50;99.90;;;;;;5051095;28;19928;-65
2023/01/05 05:08:01;;;;;;;;;;;9.50;99.90;;;;;;5048743;28;19920;-75
2023/01/05 05:10:27;;;;;;;;;;;9.50;99.90;;;;;;5049317;28;19995;-67
2023/01/05 05:12:52;;;;;;;;;;;9.50;99.90;;;;;;5042860;28;19967;-66
2023/01/05 05:15:18;;;;;;;;;;;9.50;99.90;;;;;;5048170;28;19920;-65
2023/01/05 05:17:44;;;;;;;;;;;9.50;99.90;;;;;;5047625;28;19925;-65
2023/01/05 05:20:09;;;;;;;;;;;9.50;99.90;;;;;;5052066;28;20375;-66
2023/01/05 05:22:35;;;;;;;;;;;9.50;99.90;;;;;;5050262;28;19924;-66
2023/01/05 05:25:00;;;;;;;;;;;9.30;99.90;;;;;;5083420;28;19921;-67
2023/01/05 05:27:26;;;;;;;;;;;9.50;99.90;;;;;;5049803;28;20002;-66
2023/01/05 05:29:52;;;;;;;;;;;9.50;99.90;;;;;;5050892;28;19920;-65
2023/01/05 05:32:17;;;;;;;;;;;9.50;99.90;;;;;;5050553;28;19974;-65
2023/01/05 05:34:43;;;;;;;;;;;9.50;99.90;;;;;;5051092;28;19931;-65
2023/01/05 05:37:09;;;;;;;;;;;9.50;99.90;;;;;;5050132;28;20298;-64
2023/01/05 05:39:34;;;;;;;;;;;9.50;99.90;;;;;;5049597;28;20356;-64
2023/01/05 05:42:00;;;;;;;;;;;9.50;99.90;;;;;;5047850;28;19921;-67
2023/01/05 05:44:25;;;;;;;;;;;9.50;99.90;;;;;;5050289;28;19921;-66
2023/01/05 05:46:51;;;;;;;;;;;9.50;99.90;;;;;;5066767;28;20349;-65
2023/01/05 05:49:16;;;;;;;;;;;9.50;99.90;;;;;;5055298;28;19987;-66
2023/01/05 05:51:42;;;;;;;;;;;9.50;99.90;;;;;;5046625;28;19932;-66
2023/01/05 05:54:08;;;;;;;;;;;9.50;99.90;;;;;;5070257;28;19936;-75
2023/01/05 05:56:33;;;;;;;;;;;9.50;99.90;;;;;;5050631;28;19927;-65
2023/01/05 05:58:59;;;;;;;;;;;9.50;99.90;;;;;;5081350;28;19927;-68
2023/01/05 06:01:24;;;;;;;;;;;9.50;99.90;;;;;;5048029;28;20276;-65
2023/01/05 06:03:50;;;;;;;;;;;9.50;99.90;;;;;;5033065;28;20023;-65
2023/01/05 06:06:15;;;;;;;;;;;9.50;99.90;;;;;;5038959;28;19979;-64
2023/01/05 06:08:41;;;;;;;;;;;9.50;99.90;;;;;;5034706;28;19925;-65
2023/01/05 06:11:07;;;;;;;;;;;9.50;99.90;;;;;;5038029;28;19925;-64
2023/01/05 06:13:32;;;;;;;;;;;9.50;99.90;;;;;;5058703;28;19921;-65
2023/01/05 06:15:58;;;;;;;;;;;9.40;99.90;;;;;;5045067;28;19921;-67
2023/01/05 06:18:24;;;;;;;;;;;9.50;99.90;;;;;;5038423;28;19921;-66
2023/01/05 06:20:49;;;;;;;;;;;9.40;99.90;;;;;;5054409;28;20285;-65
2023/01/05 06:23:15;;;;;;;;;;;9.40;99.90;;;;;;5047626;28;20286;-65
2023/01/05 06:25:40;;;;;;;;;;;9.50;99.90;;;;;;5054024;28;19925;-65
2023/01/05 06:28:06;;;;;;;;;;;9.40;99.90;;;;;;5054197;28;19924;-65
2023/01/05 06:30:31;;;;;;;;;;;9.40;99.90;;;;;;5053733;28;20407;-67
2023/01/05 06:32:57;;;;;;;;;;;9.40;99.90;;;;;;5052923;28;20577;-67
2023/01/05 06:35:22;;;;;;;;;;;9.30;99.90;;;;;;5039279;28;19927;-66
2023/01/05 06:37:48;;;;;;;;;;;9.30;99.90;;;;;;5053968;28;19925;-66
2023/01/05 06:40:14;;;;;;;;;;;9.30;99.90;;;;;;5053686;28;19921;-77
2023/01/05 06:42:41;;;;;;;;;;;9.20;99.90;;;;;;5054000;28;20370;-65
2023/01/05 06:45:07;;;;;;;;;;;9.20;99.90;;;;;;5055165;28;20282;-65
2023/01/05 06:47:32;;;;;;;;;;;9.20;99.90;;;;;;5052985;28;19921;-66
2023/01/05 06:49:58;;;;;;;;;;;9.20;99.90;;;;;;5053993;28;19932;-65
2023/01/05 06:52:25;;;;;;;;;;;9.30;99.90;;;;;;5053078;28;19975;-65
2023/01/05 06:54:50;;;;;;;;;;;9.20;99.90;;;;;;5053291;28;19920;-66
2023/01/05 06:57:16;;;;;;;;;;;9.20;99.90;;;;;;5043049;28;19968;-77
2023/01/05 06:59:42;;;;;;;;;;;9.30;99.90;;;;;;5053297;28;19924;-66
2023/01/05 07:02:14;;;;;;;;;;;9.20;99.90;;;;;;5053834;28;20373;-67
2023/01/05 07:04:40;;;;;;;;;;;9.20;99.90;;;;;;5050132;28;19920;-67
2023/01/05 07:07:05;;;;;;;;;;;9.20;99.90;;;;;;5051818;28;19970;-66
2023/01/05 07:09:31;;;;;;;;;;;9.20;99.90;;;;;;5049403;28;19975;-67
2023/01/05 07:11:56;;;;;;;;;;;9.20;99.90;;;;;;5067366;28;20346;-66
2023/01/05 07:14:22;;;;;;;;;;;9.20;99.90;;;;;;5050788;28;19921;-66
2023/01/05 07:16:48;;;;;;;;;;;9.20;99.90;;;;;;5047035;28;20285;-66
2023/01/05 07:19:13;;;;;;;;;;;9.20;99.90;;;;;;5050294;28;20355;-68
2023/01/05 07:21:39;;;;;;;;;;;9.20;99.90;;;;;;5051810;28;20250;-66
2023/01/05 07:24:04;;;;;;;;;;;9.20;99.90;;;;;;5053362;28;19921;-66
2023/01/05 07:26:30;;;;;;;;;;;9.20;99.90;;;;;;5058862;28;19979;-67
2023/01/05 07:28:57;;;;;;;;;;;9.20;99.90;;;;;;5053005;28;19929;-66
2023/01/05 07:31:22;;;;;;;;;;;9.20;99.90;;;;;;5052527;28;19920;-66
2023/01/05 07:33:48;;;;;;;;;;;9.20;99.90;;;;;;5052905;28;20275;-66
2023/01/05 07:36:14;;;;;;;;;;;9.30;99.90;;;;;;5058981;28;19924;-65
2023/01/05 07:38:39;;;;;;;;;;;9.20;99.90;;;;;;5052363;28;20336;-65
2023/01/05 07:41:05;;;;;;;;;;;9.20;99.90;;;;;;5052944;28;19924;-66
2023/01/05 07:43:30;;;;;;;;;;;9.20;99.90;;;;;;5052341;28;19920;-66
2023/01/05 07:45:59;;;;;;;;;;;9.20;99.90;;;;;;5054593;28;20274;-66
2023/01/05 07:48:25;;;;;;;;;;;9.20;99.90;;;;;;5057367;28;19920;-66
2023/01/05 07:50:50;;;;;;;;;;;9.20;99.90;;;;;;5050893;28;19920;-65
2023/01/05 07:53:16;;;;;;;;;;;9.20;99.90;;;;;;5052556;28;20395;-67
2023/01/05 07:55:42;;;;;;;;;;;9.20;99.90;;;;;;5052051;28;19925;-65
2023/01/05 07:58:07;;;;;;;;;;;9.20;99.90;;;;;;5060614;28;19920;-65
2023/01/05 08:00:33;;;;;;;;;;;9.20;99.90;;;;;;5050535;28;20258;-73
2023/01/05 08:02:58;;;;;;;;;;;9.20;99.90;;;;;;5051268;28;19947;-65
2023/01/05 08:05:28;;;;;;;;;;;9.10;99.90;;;;;;5052242;28;19921;-75
2023/01/05 08:07:54;;;;;;;;;;;9.20;99.90;;;;;;5052239;28;19921;-68
2023/01/05 08:10:29;;;;;;;;;;;9.20;99.90;;;;;;5052602;28;19966;-66
2023/01/05 08:15:43;;;;;;;;;;;9.20;99.90;;;;;;5044678;28;20432;-68
2023/01/05 08:18:09;;;;;;;;;;;9.20;99.90;;;;;;5058298;28;20003;-66
2023/01/05 08:20:34;;;;;;;;;;;9.20;99.90;;;;;;5060699;28;20415;-66
2023/01/05 08:23:00;;;;;;;;;;;9.10;99.90;;;;;;5051862;28;20007;-65
2023/01/05 08:25:26;;;;;;;;;;;9.20;99.90;;;;;;5047107;28;20004;-66
2023/01/05 08:27:52;;;;;;;;;;;9.20;99.90;;;;;;5048856;28;19920;-67
2023/01/05 08:30:18;;;;;;;;;;;9.20;99.90;;;;;;5071428;28;20011;-67
2023/01/05 08:32:43;;;;;;;;;;;9.20;99.90;;;;;;5050521;28;19927;-66
2023/01/05 08:35:09;;;;;;;;;;;9.20;99.90;;;;;;5047168;28;19925;-66
2023/01/05 08:37:34;;;;;;;;;;;9.30;99.90;;;;;;5043819;28;19978;-67
2023/01/05 08:40:00;;;;;;;;;;;9.30;99.90;;;;;;5048191;28;20285;-69
2023/01/05 08:42:26;;;;;;;;;;;9.20;99.90;;;;;;5043010;28;19987;-69
2023/01/05 08:44:51;;;;;;;;;;;9.20;99.90;;;;;;5050003;28;19925;-66
2023/01/05 08:47:17;;;;;;;;;;;9.20;99.90;;;;;;5035169;28;19928;-67
2023/01/05 08:49:42;;;;;;;;;;;9.20;99.90;;;;;;5036016;28;20447;-65
2023/01/05 08:52:08;;;;;;;;;;;9.20;99.90;;;;;;5080723;28;19925;-66
2023/01/05 08:54:34;;;;;;;;;;;9.20;99.90;;;;;;5063289;28;19924;-71
2023/01/05 08:57:00;;;;;;;;;;;9.20;99.90;;;;;;5032149;28;19928;-69
2023/01/05 08:59:25;;;;;;;;;;;9.20;99.90;;;;;;5050451;28;20391;-66
2023/01/05 09:01:51;;;;;;;;;;;9.20;99.90;;;;;;5039933;28;20114;-66
2023/01/05 09:04:16;;;;;;;;;;;9.20;99.90;;;;;;5035894;28;19959;-66
2023/01/05 09:06:42;;;;;;;;;;;9.20;99.90;;;;;;5042359;28;20011;-65
2023/01/05 09:09:08;;;;;;;;;;;9.20;99.90;;;;;;5050659;28;19925;-66
2023/01/05 09:11:33;;;;;;;;;;;9.10;99.90;;;;;;5042351;28;19928;-74
2023/01/05 09:14:01;;;;;;;;;;;9.20;99.90;;;;;;5040393;28;19921;-67
2023/01/05 09:16:28;;;;;;;;;;;9.10;99.90;;;;;;5046629;28;19931;-70
2023/01/05 09:18:56;;;;;;;;;;;9.20;99.90;;;;;;5047208;28;19928;-66
2023/01/05 09:21:21;;;;;;;;;;;9.10;99.90;;;;;;5046430;28;19925;-74
2023/01/05 09:23:47;;;;;;;;;;;9.10;99.90;;;;;;5043787;28;19925;-68
2023/01/05 09:26:14;;;;;;;;;;;9.10;99.90;;;;;;5047061;28;19924;-66
2023/01/05 09:28:41;;;;;;;;;;;9.00;99.90;;;;;;5043607;28;19924;-67
2023/01/05 09:31:06;;;;;;;;;;;9.00;99.90;;;;;;5045308;28;19978;-67
2023/01/05 09:33:32;;;;;;;;;;;9.00;99.90;;;;;;5043835;28;19924;-65
2023/01/05 09:35:58;;;;;;;;;;;9.10;99.90;;;;;;5047373;28;20369;-69
2023/01/05 09:38:23;;;;;;;;;;;9.10;99.90;;;;;;5046494;28;19939;-67
2023/01/05 09:40:50;;;;;;;;;;;9.10;99.90;;;;;;5037098;28;19925;-66
2023/01/05 09:43:25;;;;;;;;;;;9.10;99.90;;;;;;5047560;28;20015;-71
2023/01/05 09:45:51;;;;;;;;;;;9.10;99.90;;;;;;5035244;28;19921;-66
2023/01/05 09:48:17;;;;;;;;;;;9.10;99.90;;;;;;5045874;28;20589;-68
2023/01/05 09:50:43;;;;;;;;;;;9.20;99.90;;;;;;5072020;28;19979;-67
2023/01/05 09:53:11;;;;;;;;;;;9.10;99.90;;;;;;5077602;28;20025;-69
2023/01/05 09:55:37;;;;;;;;;;;9.10;99.90;;;;;;5045459;28;19921;-67
2023/01/05 09:58:11;;;;;;;;;;;9.20;99.90;;;;;;5042686;28;20010;-65
2023/01/05 10:00:39;;;;;;;;;;;9.20;99.90;;;;;;5044990;28;19929;-67
2023/01/05 10:03:15;;;;;;;;;;;9.20;99.90;;;;;;5051853;28;19925;-68
2023/01/05 10:05:42;;;;;;;;;;;9.20;99.90;;;;;;5051667;28;19925;-74
2023/01/05 10:08:29;;;;;;;;;;;9.20;99.90;;;;;;5040837;28;19917;-66
2023/01/05 10:13:42;;;;;;;;;;;9.30;99.90;;;;;;5048662;28;19921;-65
2023/01/05 10:16:13;;;;;;;;;;;9.30;99.90;;;;;;5038146;28;20023;-68
2023/01/05 10:18:38;;;;;;;;;;;9.40;99.90;;;;;;5050046;28;19932;-66
2023/01/05 10:21:22;;;;;;;;;;;9.40;99.90;;;;;;5028252;28;19924;-71
2023/01/05 10:24:00;;;;;;;;;;;9.40;99.90;;;;;;5081247;28;19925;-66
2023/01/05 10:26:40;;;;;;;;;;;9.50;99.90;;;;;;5051357;28;20046;-69
2023/01/05 10:29:09;;;;;;;;;;;9.50;99.90;;;;;;5044748;28;19932;-66
2023/01/05 10:31:44;;;;;;;;;;;9.50;99.90;;;;;;5053198;28;19925;-66
2023/01/05 10:34:28;;;;;;;;;;;9.50;99.90;;;;;;5040312;28;20362;-70
2023/01/05 10:37:02;;;;;;;;;;;9.50;99.90;;;;;;5046892;28;19920;-67
2023/01/05 10:39:40;;;;;;;;;;;9.50;99.90;;;;;;5038737;28;19921;-68
2023/01/05 10:42:14;;;;;;;;;;;9.50;99.90;;;;;;5041721;28;20782;-66
2023/01/05 10:44:49;;;;;;;;;;;9.50;99.90;;;;;;5049859;28;19921;-67
2023/01/05 10:47:15;;;;;;;;;;;9.50;99.90;;;;;;5046217;28;19920;-69
2023/01/05 10:49:42;;;;;;;;;;;9.50;99.90;;;;;;5067096;28;19924;-68
2023/01/05 10:52:12;;;;;;;;;;;9.60;99.90;;;;;;5049439;28;20388;-68
2023/01/05 10:54:39;;;;;;;;;;;9.60;99.90;;;;;;5041613;28;19925;-66
2023/01/05 10:57:23;;;;;;;;;;;9.60;99.90;;;;;;5053505;28;19924;-67
2023/01/05 10:59:56;;;;;;;;;;;9.70;99.90;;;;;;5050720;28;20393;-68
2023/01/05 11:02:27;;;;;;;;;;;9.70;99.90;;;;;;5052566;28;19974;-68
2023/01/05 11:04:53;;;;;;;;;;;9.70;99.90;;;;;;5052439;28;19924;-66
2023/01/05 11:07:19;;;;;;;;;;;9.70;99.90;;;;;;5052821;28;19967;-66
2023/01/05 11:09:46;;;;;;;;;;;9.70;99.90;;;;;;5044235;28;19975;-66
2023/01/05 11:12:17;;;;;;;;;;;9.80;99.90;;;;;;5032722;28;19968;-66
2023/01/05 11:14:46;;;;;;;;;;;9.70;99.90;;;;;;5047118;28;19971;-66
2023/01/05 11:17:16;;;;;;;;;;;9.80;99.90;;;;;;5047521;28;19925;-67
2023/01/05 11:19:46;;;;;;;;;;;9.80;99.90;;;;;;5052969;28;20016;-67
2023/01/05 11:22:31;;;;;;;;;;;9.80;99.90;;;;;;5039171;28;19921;-68
2023/01/05 11:25:20;;;;;;;;;;;9.80;99.90;;;;;;5041914;28;19921;-68
2023/01/05 11:27:45;;;;;;;;;;;9.80;99.90;;;;;;5039830;28;19932;-74
2023/01/05 11:30:13;;;;;;;;;;;9.80;99.90;;;;;;5047258;28;19921;-68
2023/01/05 11:32:39;;;;;;;;;;;9.80;99.90;;;;;;5043394;28;20329;-67
2023/01/05 11:35:15;;;;;;;;;;;9.80;99.90;;;;;;5042800;28;19993;-67
2023/01/05 11:37:43;;;;;;;;;;;9.80;99.90;;;;;;5046813;28;20344;-67
2023/01/05 11:40:13;;;;;;;;;;;9.80;99.90;;;;;;5078021;28;19996;-71
2023/01/05 11:42:42;;;;;;;;;;;9.80;99.90;;;;;;5044974;28;19925;-72
2023/01/05 11:45:21;;;;;;;;;;;9.80;99.90;;;;;;5048231;28;19968;-66
2023/01/05 11:47:55;;;;;;;;;;;9.80;99.90;;;;;;5045728;28;19986;-71
2023/01/05 11:50:25;;;;;;;;;;;9.70;99.90;;;;;;5049063;28;19975;-68
2023/01/05 11:52:52;;;;;;;;;;;9.80;99.90;;;;;;5037635;28;19921;-67
2023/01/05 11:55:18;;;;;;;;;;;9.80;99.90;;;;;;5041076;28;19927;-67
2023/01/05 11:57:44;;;;;;;;;;;9.80;99.90;;;;;;5042206;28;19921;-67
2023/01/05 12:00:25;;;;;;;;;;;9.80;99.90;;;;;;5045908;28;19944;-66
2023/01/05 12:02:57;;;;;;;;;;;9.80;99.90;;;;;;5046760;28;20011;-65
2023/01/05 12:05:27;;;;;;;;;;;9.80;99.90;;;;;;5033656;28;20208;-65
2023/01/05 12:08:09;;;;;;;;;;;9.80;99.90;;;;;;5045241;28;19921;-65
2023/01/05 12:10:41;;;;;;;;;;;9.60;99.90;;;;;;5046927;28;19927;-65
2023/01/05 12:13:25;;;;;;;;;;;9.80;99.90;;;;;;5034351;28;19928;-66
2023/01/05 12:16:11;;;;;;;;;;;9.80;99.90;;;;;;5035911;28;19921;-66
2023/01/05 12:18:36;;;;;;;;;;;9.80;99.90;;;;;;5046829;28;20297;-67
2023/01/05 12:21:05;;;;;;;;;;;9.80;99.90;;;;;;5052435;28;19924;-67
2023/01/05 12:23:31;;;;;;;;;;;9.80;99.90;;;;;;5050783;28;19921;-67
2023/01/05 12:26:12;;;;;;;;;;;9.90;99.90;;;;;;5051616;28;20020;-73
2023/01/05 12:29:16;;;;;;;;;;;10.20;99.90;;;;;;5051128;28;19927;-65
2023/01/05 12:31:45;;;;;;;;;;;9.90;99.90;;;;;;5008176;28;19943;-66
2023/01/05 12:34:16;;;;;;;;;;;10.00;99.90;;;;;;4986308;28;20264;-67
2023/01/05 12:36:48;;;;;;;;;;;10.00;99.90;;;;;;5022324;28;19924;-69
2023/01/05 12:39:32;;;;;;;;;;;10.10;99.90;;;;;;5076358;28;19928;-67
2023/01/05 12:42:04;;;;;;;;;;;10.10;99.90;;;;;;5063437;28;20400;-74
2023/01/05 12:44:38;;;;;;;;;;;10.20;99.90;;;;;;5051565;28;20281;-67
2023/01/05 12:47:14;;;;;;;;;;;10.20;99.90;;;;;;5050635;28;20015;-67
2023/01/05 12:49:40;;;;;;;;;;;10.20;99.90;;;;;;5051612;28;20062;-67
2023/01/05 12:52:05;;;;;;;;;;;10.20;99.90;;;;;;5050698;28;20419;-67
2023/01/05 12:54:37;;;;;;;;;;;10.10;99.90;;;;;;5051173;28;19931;-66
2023/01/05 12:57:06;;;;;;;;;;;10.10;99.90;;;;;;5049263;28;20298;-67
2023/01/05 12:59:55;;;;;;;;;;;10.10;99.90;;;;;;5049963;28;20011;-67
2023/01/05 13:02:27;;;;;;;;;;;10.10;99.90;;;;;;5050737;28;20464;-69
2023/01/05 13:05:00;;;;;;;;;;;10.10;99.90;;;;;;5051210;28;20011;-68
2023/01/05 13:07:41;;;;;;;;;;;10.10;99.90;;;;;;5050591;28;19920;-67
2023/01/05 13:10:21;;;;;;;;;;;10.10;99.90;;;;;;5049553;28;19927;-68
2023/01/05 13:12:49;;;;;;;;;;;10.00;99.90;;;;;;5058125;28;19927;-67
2023/01/05 13:15:19;;;;;;;;;;;10.00;99.90;;;;;;5050331;28;20401;-68
2023/01/05 13:17:47;;;;;;;;;;;10.00;99.90;;;;;;5050375;28;19925;-65
2023/01/05 13:20:25;;;;;;;;;;;9.90;99.90;;;;;;5032739;28;19921;-66
2023/01/05 13:22:53;;;;;;;;;;;10.00;99.90;;;;;;5052175;28;19960;-66
2023/01/05 13:25:21;;;;;;;;;;;10.00;99.90;;;;;;5050354;28;20096;-66
2023/01/05 13:27:46;;;;;;;;;;;10.00;99.90;;;;;;5051058;28;19921;-66
2023/01/05 13:30:24;;;;;;;;;;;10.00;99.90;;;;;;5049969;28;19932;-67
2023/01/05 13:32:58;;;;;;;;;;;10.10;99.90;;;;;;5053698;28;20058;-66
2023/01/05 13:35:39;;;;;;;;;;;10.00;99.90;;;;;;5053306;28;19928;-66
2023/01/05 13:38:23;;;;;;;;;;;10.00;99.90;;;;;;5083226;28;19931;-73
2023/01/05 13:40:59;;;;;;;;;;;10.00;99.90;;;;;;5050427;28;19927;-67
2023/01/05 13:43:36;;;;;;;;;;;10.00;99.90;;;;;;5050093;28;19940;-66
2023/01/05 13:46:04;;;;;;;;;;;10.00;99.90;;;;;;5038805;28;19924;-66
2023/01/05 13:48:48;;;;;;;;;;;10.00;99.90;;;;;;5066030;28;19974;-67
2023/01/05 13:51:26;;;;;;;;;;;10.00;99.90;;;;;;5037710;28;19966;-67
2023/01/05 13:53:53;;;;;;;;;;;10.00;99.90;;;;;;5054280;28;20346;-67
2023/01/05 13:56:23;;;;;;;;;;;9.90;99.90;;;;;;5050123;28;19928;-66
2023/01/05 13:58:58;;;;;;;;;;;9.90;99.90;;;;;;5049828;28;19921;-67
2023/01/05 14:01:54;;;;;;;;;;;9.90;99.90;;;;;;5050438;28;19924;-66
2023/01/05 14:04:21;;;;;;;;;;;9.90;99.90;;;;;;5031391;28;19955;-66
2023/01/05 14:06:48;;;;;;;;;;;9.90;99.90;;;;;;5032517;28;20267;-64
2023/01/05 14:09:37;;;;;;;;;;;9.90;99.90;;;;;;5048076;28;20000;-67
2023/01/05 14:12:14;;;;;;;;;;;9.90;99.90;;;;;;5044441;28;20015;-64
2023/01/05 14:14:59;;;;;;;;;;;9.90;99.90;;;;;;5046595;28;19929;-69
2023/01/05 14:17:54;;;;;;;;;;;10.00;99.90;;;;;;5035350;28;19921;-65
2023/01/05 14:20:32;;;;;;;;;;;10.00;99.90;;;;;;5043815;28;19932;-65
2023/01/05 14:22:58;;;;;;;;;;;10.00;99.90;;;;;;5044489;28;19974;-65
2023/01/05 14:25:39;;;;;;;;;;;10.10;99.90;;;;;;5044062;28;20370;-63
2023/01/05 14:28:33;;;;;;;;;;;10.00;99.90;;;;;;5049821;28;20050;-63
2023/01/05 14:31:21;;;;;;;;;;;10.10;99.90;;;;;;5045812;28;19977;-64
2023/01/05 14:33:48;;;;;;;;;;;10.10;99.90;;;;;;5035662;28;19928;-65
2023/01/05 14:36:32;;;;;;;;;;;10.10;99.90;;;;;;5054453;28;20007;-64
2023/01/05 14:38:58;;;;;;;;;;;10.10;99.90;;;;;;5052859;28;19921;-65
2023/01/05 14:41:26;;;;;;;;;;;10.00;99.90;;;;;;5053211;28;20004;-64
2023/01/05 14:44:01;;;;;;;;;;;10.10;99.90;;;;;;5051924;28;19974;-64
2023/01/05 14:46:27;;;;;;;;;;;10.00;99.90;;;;;;5035366;28;19920;-64
2023/01/05 14:48:59;;;;;;;;;;;10.00;99.90;;;;;;5050124;28;19947;-64
2023/01/05 14:51:27;;;;;;;;;;;10.00;99.90;;;;;;5051874;28;19921;-65
2023/01/05 14:53:54;;;;;;;;;;;10.00;99.90;;;;;;5047108;28;20449;-64
2023/01/05 14:56:22;;;;;;;;;;;10.00;99.90;;;;;;5052039;28;19925;-64
2023/01/05 14:58:51;;;;;;;;;;;10.00;99.90;;;;;;5044709;28;19944;-63
2023/01/05 15:01:17;;;;;;;;;;;10.00;99.90;;;;;;5045164;28;19977;-64
2023/01/05 15:03:42;;;;;;;;;;;10.00;99.90;;;;;;5047798;28;19968;-67
2023/01/05 15:06:18;;;;;;;;;;;10.00;99.90;;;;;;5042563;28;19921;-64
2023/01/05 15:08:49;;;;;;;;;;;10.00;99.90;;;;;;5051713;28;20381;-65
2023/01/05 15:11:40;;;;;;;;;;;10.00;99.90;;;;;;5056492;28;19928;-64
2023/01/05 15:14:30;;;;;;;;;;;10.00;99.90;;;;;;5050046;28;20283;-64
2023/01/05 15:16:56;;;;;;;;;;;10.00;99.90;;;;;;5047063;28;19944;-64